Time;durP1;ratioP1;P1;durP2;ratioP2;P2;SDS_P1;SDS_P2;PMS_P1;PMS_P2;Temp;Humidity;BMP_temperature;BMP_pressure;BME280_temperature;BME280_humidity;BME280_pressure;Samples;Min_cycle;Max_cycle;Signal;HPM_P1;HPM_P2
2022/05/28 00:00:53;;;;;;;10.73;2.60;;;11.60;99.90;;;;;;5090721;28;20184;-59
2022/05/28 00:03:20;;;;;;;13.30;2.57;;;11.60;99.90;;;;;;5090750;28;20172;-58
2022/05/28 00:05:47;;;;;;;12.00;2.43;;;11.60;99.90;;;;;;5090695;28;20192;-59
2022/05/28 00:08:13;;;;;;;12.50;1.93;;;11.50;99.90;;;;;;5090489;28;20176;-59
2022/05/28 00:10:39;;;;;;;9.63;2.27;;;11.50;99.90;;;;;;5090692;28;20581;-58
2022/05/28 00:13:05;;;;;;;9.17;1.87;;;11.50;99.90;;;;;;5090584;28;20675;-59
2022/05/28 00:15:31;;;;;;;8.03;2.10;;;15.50;99.90;;;;;;5090404;28;20227;-59
2022/05/28 00:17:59;;;;;;;12.60;2.00;;;11.10;99.90;;;;;;5090580;28;20179;-59
2022/05/28 00:20:25;;;;;;;10.60;2.00;;;11.40;99.90;;;;;;5090411;28;20172;-59
2022/05/28 00:22:51;;;;;;;6.67;1.70;;;11.20;99.90;;;;;;5090551;28;20190;-58
2022/05/28 00:25:18;;;;;;;4.90;1.37;;;11.20;99.90;;;;;;5089141;28;20671;-59
2022/05/28 00:27:44;;;;;;;11.43;1.90;;;;;;;;;;5089950;28;20620;-59
2022/05/28 00:30:13;;;;;;;7.47;2.10;;;11.30;99.90;;;;;;5090483;28;20206;-58
2022/05/28 00:32:40;;;;;;;5.57;1.43;;;11.30;99.90;;;;;;5090350;28;20184;-58
2022/05/28 00:35:09;;;;;;;11.17;1.93;;;11.20;99.90;;;;;;5090355;28;20250;-58
2022/05/28 00:37:35;;;;;;;8.27;1.70;;;11.10;99.90;;;;;;5088889;28;20223;-58
2022/05/28 00:40:03;;;;;;;8.13;1.90;;;11.20;99.90;;;;;;5090558;28;20666;-58
2022/05/28 00:42:29;;;;;;;8.43;1.90;;;;;;;;;;5090213;28;20195;-58
2022/05/28 00:44:55;;;;;;;8.80;1.60;;;11.10;99.90;;;;;;5090248;28;20640;-60
2022/05/28 00:47:21;;;;;;;9.93;1.73;;;10.90;99.90;;;;;;5090528;28;20202;-58
2022/05/28 00:49:47;;;;;;;10.77;1.70;;;11.10;99.90;;;;;;5094255;28;20294;-58
2022/05/28 00:52:14;;;;;;;12.37;1.47;;;10.60;99.90;;;;;;5094101;28;20242;-59
2022/05/28 00:54:46;;;;;;;10.97;1.63;;;11.00;99.90;;;;;;5094157;28;20178;-58
2022/05/28 00:57:14;;;;;;;9.20;2.03;;;11.10;99.90;;;;;;5093798;28;20175;-58
2022/05/28 00:59:41;;;;;;;9.33;2.00;;;11.30;99.90;;;;;;5093978;28;20190;-58
2022/05/28 01:02:39;;;;;;;11.73;1.73;;;10.90;99.90;;;;;;5094065;28;20217;-59
2022/05/28 01:05:20;;;;;;;10.17;1.87;;;10.90;99.90;;;;;;5093794;28;20182;-58
2022/05/28 01:07:46;;;;;;;10.80;1.77;;;;;;;;;;5093411;28;20648;-58
2022/05/28 01:10:33;;;;;;;11.70;2.00;;;10.90;99.90;;;;;;5093904;28;20168;-58
2022/05/28 01:13:18;;;;;;;6.20;1.80;;;11.00;99.90;;;;;;5093861;28;20171;-59
2022/05/28 01:15:53;;;;;;;9.37;1.77;;;11.00;99.90;;;;;;5093433;28;20734;-58
2022/05/28 01:18:49;;;;;;;11.63;2.13;;;11.00;99.90;;;;;;5093750;28;20588;-59
2022/05/28 01:21:42;;;;;;;11.87;2.20;;;10.90;99.90;;;;;;5093489;28;20202;-59
2022/05/28 01:24:36;;;;;;;11.17;2.23;;;10.90;99.90;;;;;;5093660;28;20163;-59
2022/05/28 01:27:08;;;;;;;8.20;1.90;;;10.90;99.90;;;;;;5093609;28;20215;-59
2022/05/28 01:29:46;;;;;;;9.77;1.50;;;11.00;99.90;;;;;;5093069;28;20250;-58
2022/05/28 01:32:13;;;;;;;12.03;1.87;;;10.90;99.90;;;;;;5093670;28;20180;-59
2022/05/28 01:34:41;;;;;;;9.73;2.10;;;10.90;99.90;;;;;;5093135;28;20195;-59
2022/05/28 01:37:09;;;;;;;12.37;1.60;;;10.80;99.90;;;;;;5093299;28;20176;-59
2022/05/28 01:39:36;;;;;;;7.03;2.07;;;10.50;99.90;;;;;;5093456;28;20168;-59
2022/05/28 01:42:02;;;;;;;9.90;1.90;;;10.60;99.90;;;;;;5093069;28;20183;-59
2022/05/28 01:44:30;;;;;;;12.17;2.07;;;10.60;99.90;;;;;;5093137;28;20172;-59
2022/05/28 01:46:57;;;;;;;7.43;2.00;;;10.50;99.90;;;;;;5093085;28;20219;-59
2022/05/28 01:49:24;;;;;;;13.83;1.90;;;10.60;99.90;;;;;;5093149;28;20168;-59
2022/05/28 01:51:55;;;;;;;9.70;1.90;;;10.60;99.90;;;;;;5092894;28;20233;-60
2022/05/28 01:54:33;;;;;;;7.53;1.80;;;10.40;99.90;;;;;;5093057;28;20160;-60
2022/05/28 01:56:59;;;;;;;6.77;1.97;;;10.70;99.90;;;;;;5092892;28;20179;-60
2022/05/28 01:59:31;;;;;;;8.80;2.00;;;10.40;99.90;;;;;;5092547;28;20666;-60
2022/05/28 02:01:59;;;;;;;9.83;2.10;;;10.50;99.90;;;;;;5092976;28;20172;-60
2022/05/28 02:04:25;;;;;;;8.63;2.07;;;10.50;99.90;;;;;;5092816;28;20171;-60
2022/05/28 02:06:51;;;;;;;11.47;1.90;;;10.50;99.90;;;;;;5092447;28;20200;-60
2022/05/28 02:09:22;;;;;;;12.23;2.20;;;10.80;99.90;;;;;;5092876;28;20266;-60
2022/05/28 02:12:12;;;;;;;8.07;1.73;;;10.50;99.90;;;;;;5092821;28;20178;-60
2022/05/28 02:14:53;;;;;;;10.23;2.03;;;10.30;99.90;;;;;;5092346;28;20257;-60
2022/05/28 02:17:23;;;;;;;10.47;1.93;;;10.30;99.90;;;;;;5092650;28;20176;-60
2022/05/28 02:19:49;;;;;;;7.30;1.77;;;;;;;;;;5092322;28;20202;-60
2022/05/28 02:22:52;;;;;;;7.17;1.73;;;10.60;99.90;;;;;;5092588;28;20631;-59
2022/05/28 02:25:21;;;;;;;12.33;1.87;;;;;;;;;;5092191;28;20298;-60
2022/05/28 02:27:49;;;;;;;11.17;2.37;;;10.70;99.90;;;;;;5092345;28;20662;-60
2022/05/28 02:30:15;;;;;;;6.70;1.43;;;10.60;99.90;;;;;;5092252;28;20190;-60
2022/05/28 02:32:41;;;;;;;8.60;2.30;;;;;;;;;;5092199;28;20659;-60
2022/05/28 02:35:09;;;;;;;7.83;1.90;;;10.40;99.90;;;;;;5092325;28;20183;-60
2022/05/28 02:37:35;;;;;;;9.60;1.80;;;;;;;;;;5092132;28;20171;-59
2022/05/28 02:40:01;;;;;;;6.83;1.83;;;10.30;99.90;;;;;;5092111;28;20550;-60
2022/05/28 02:42:27;;;;;;;13.17;2.70;;;;;;;;;;5092045;28;20184;-63
2022/05/28 02:44:52;;;;;;;8.27;1.87;;;10.40;99.90;;;;;;5092465;28;20220;-59
2022/05/28 02:47:18;;;;;;;8.10;1.63;;;10.50;99.90;;;;;;5091647;28;20207;-60
2022/05/28 02:49:44;;;;;;;16.30;2.53;;;;;;;;;;5091873;28;20179;-59
2022/05/28 02:52:10;;;;;;;9.27;2.23;;;10.20;99.90;;;;;;5092087;28;20172;-59
2022/05/28 02:54:36;;;;;;;10.47;1.93;;;10.30;99.90;;;;;;5091934;28;20508;-60
2022/05/28 02:57:02;;;;;;;10.40;1.63;;;10.20;99.90;;;;;;5091816;28;20643;-59
2022/05/28 02:59:29;;;;;;;10.57;2.00;;;;;;;;;;5091874;28;20187;-59
2022/05/28 03:01:55;;;;;;;8.60;1.73;;;;;;;;;;5091809;28;20745;-59
2022/05/28 03:04:21;;;;;;;8.83;2.07;;;;;;;;;;5091510;28;20287;-59
2022/05/28 03:06:46;;;;;;;7.03;2.27;;;10.30;99.90;;;;;;5091577;28;20207;-60
2022/05/28 03:09:12;;;;;;;5.33;1.70;;;;;;;;;;5091578;28;20175;-60
2022/05/28 03:11:39;;;;;;;6.83;1.30;;;10.10;99.90;;;;;;5090653;28;20176;-60
2022/05/28 03:14:04;;;;;;;10.10;2.13;;;10.10;99.90;;;;;;5091600;28;20176;-60
2022/05/28 03:16:31;;;;;;;9.73;2.00;;;10.40;99.90;;;;;;5091371;28;20231;-60
2022/05/28 03:18:57;;;;;;;10.50;1.90;;;;;;;;;;5091304;28;20179;-60
2022/05/28 03:21:23;;;;;;;10.67;2.20;;;10.10;99.90;;;;;;5091436;28;20207;-59
2022/05/28 03:23:49;;;;;;;15.63;2.60;;;10.10;99.90;;;;;;5091332;28;20199;-60
2022/05/28 03:26:22;;;;;;;11.23;2.27;;;10.20;99.90;;;;;;5090987;28;20207;-60
2022/05/28 03:28:51;;;;;;;11.03;2.20;;;10.10;99.90;;;;;;5091013;28;20594;-59
2022/05/28 03:31:18;;;;;;;10.47;1.77;;;10.20;99.90;;;;;;5090791;28;20172;-60
2022/05/28 03:33:44;;;;;;;9.63;1.93;;;;;;;;;;5091166;28;20165;-60
2022/05/28 03:36:10;;;;;;;10.63;2.10;;;9.90;99.90;;;;;;5091189;28;20168;-60
2022/05/28 03:38:37;;;;;;;5.43;1.70;;;9.90;99.90;;;;;;5091146;28;20172;-60
2022/05/28 03:41:03;;;;;;;11.70;2.43;;;9.90;99.90;;;;;;5090881;28;20164;-60
2022/05/28 03:43:29;;;;;;;9.53;1.97;;;9.40;99.90;;;;;;5091087;28;20259;-60
2022/05/28 03:45:55;;;;;;;11.47;2.30;;;9.80;99.90;;;;;;5090948;28;20692;-60
2022/05/28 03:48:21;;;;;;;13.53;2.00;;;9.60;99.90;;;;;;5090947;28;20160;-60
2022/05/28 03:50:47;;;;;;;8.73;2.07;;;9.50;99.90;;;;;;5090622;28;20717;-59
2022/05/28 03:53:13;;;;;;;8.97;1.70;;;9.40;99.90;;;;;;5090988;28;20694;-60
2022/05/28 03:55:40;;;;;;;7.00;1.73;;;9.70;99.90;;;;;;5090811;28;20264;-60
2022/05/28 03:58:06;;;;;;;9.33;2.07;;;9.70;99.90;;;;;;5090558;28;20254;-60
2022/05/28 04:00:33;;;;;;;12.37;1.90;;;9.80;99.90;;;;;;5091020;28;20203;-60
2022/05/28 04:02:59;;;;;;;7.87;1.43;;;9.60;99.90;;;;;;5090712;28;20247;-60
2022/05/28 04:05:25;;;;;;;14.03;2.00;;;9.90;99.90;;;;;;5090441;28;20229;-60
2022/05/28 04:07:51;;;;;;;12.47;2.07;;;9.60;99.90;;;;;;5090808;28;20628;-60
2022/05/28 04:10:17;;;;;;;14.50;2.03;;;9.60;99.90;;;;;;5090631;28;20184;-60
2022/05/28 04:12:43;;;;;;;14.03;2.50;;;;;;;;;;5090427;28;20187;-60
2022/05/28 04:15:11;;;;;;;12.07;2.20;;;9.50;99.90;;;;;;5090519;28;20204;-60
2022/05/28 04:17:37;;;;;;;5.10;1.83;;;9.50;99.90;;;;;;5090676;28;20185;-60
2022/05/28 04:20:04;;;;;;;7.77;1.90;;;9.80;99.90;;;;;;5090623;28;20179;-60
2022/05/28 04:22:30;;;;;;;7.23;2.10;;;10.00;99.90;;;;;;5092851;28;20175;-60
2022/05/28 04:24:56;;;;;;;7.60;1.90;;;;;;;;;;5094772;28;20163;-60
2022/05/28 04:27:22;;;;;;;9.20;2.23;;;9.80;99.90;;;;;;5094621;28;20203;-60
2022/05/28 04:29:48;;;;;;;8.37;2.17;;;;;;;;;;5094797;28;20214;-61
2022/05/28 04:32:13;;;;;;;8.80;2.17;;;10.00;99.90;;;;;;5094666;28;20172;-61
2022/05/28 04:34:39;;;;;;;7.50;2.03;;;10.00;99.90;;;;;;5094297;28;20171;-60
2022/05/28 04:37:05;;;;;;;8.07;1.97;;;9.80;99.90;;;;;;5094278;28;20638;-59
2022/05/28 04:39:31;;;;;;;10.30;1.90;;;9.60;99.90;;;;;;5094420;28;20176;-60
2022/05/28 04:41:57;;;;;;;11.30;2.00;;;9.80;99.90;;;;;;5094738;28;20180;-60
2022/05/28 04:44:22;;;;;;;13.00;2.07;;;9.40;99.90;;;;;;5094434;28;20640;-60
2022/05/28 04:46:48;;;;;;;10.47;2.30;;;9.80;99.90;;;;;;5094032;28;20210;-60
2022/05/28 04:49:14;;;;;;;9.37;1.93;;;;;;;;;;5094422;28;20172;-60
2022/05/28 04:51:40;;;;;;;9.07;1.90;;;9.70;99.90;;;;;;5094046;28;20251;-60
2022/05/28 04:54:06;;;;;;;13.67;2.30;;;;;;;;;;5093995;28;20670;-60
2022/05/28 04:56:32;;;;;;;12.33;2.37;;;9.60;99.90;;;;;;5094052;28;20183;-60
2022/05/28 04:58:58;;;;;;;10.20;2.43;;;;;;;;;;5094094;28;20182;-60
2022/05/28 05:01:24;;;;;;;15.73;2.47;;;9.70;99.90;;;;;;5094190;28;20258;-60
2022/05/28 05:03:50;;;;;;;10.80;2.00;;;10.10;99.90;;;;;;5094100;28;20175;-60
2022/05/28 05:06:15;;;;;;;11.70;2.00;;;10.50;99.90;;;;;;5093666;28;20199;-59
2022/05/28 05:08:41;;;;;;;12.67;2.50;;;10.30;99.90;;;;;;5093986;28;20210;-60
2022/05/28 05:11:07;;;;;;;6.70;1.83;;;10.20;99.90;;;;;;5093838;28;20604;-66
2022/05/28 05:13:33;;;;;;;10.00;2.23;;;10.40;99.90;;;;;;5094036;28;20199;-69
2022/05/28 05:15:58;;;;;;;11.73;2.00;;;10.20;99.90;;;;;;5092347;28;20703;-60
2022/05/28 05:18:24;;;;;;;9.83;2.20;;;10.00;99.90;;;;;;5093704;28;20187;-60
2022/05/28 05:20:50;;;;;;;13.10;2.23;;;10.10;99.90;;;;;;5093479;28;20237;-60
2022/05/28 05:23:17;;;;;;;11.57;2.10;;;10.30;99.90;;;;;;5093594;28;20543;-60
2022/05/28 05:25:43;;;;;;;13.23;2.90;;;10.30;99.90;;;;;;5093866;28;20219;-60
2022/05/28 05:28:09;;;;;;;17.87;2.57;;;10.60;99.90;;;;;;5093775;28;20202;-60
2022/05/28 05:30:35;;;;;;;12.20;2.00;;;10.70;99.90;;;;;;5093499;28;20179;-60
2022/05/28 05:33:01;;;;;;;13.07;2.27;;;10.50;99.90;;;;;;5092167;28;20666;-60
2022/05/28 05:35:26;;;;;;;14.17;2.40;;;10.70;99.90;;;;;;5093112;28;20176;-60
2022/05/28 05:37:52;;;;;;;9.20;2.00;;;10.50;99.90;;;;;;5093020;28;20586;-60
2022/05/28 05:40:17;;;;;;;14.10;2.27;;;10.70;99.90;;;;;;5093472;28;20176;-60
2022/05/28 05:42:43;;;;;;;9.70;2.43;;;11.10;99.90;;;;;;5093053;28;20251;-60
2022/05/28 05:45:09;;;;;;;11.30;2.47;;;10.70;99.90;;;;;;5092868;28;20223;-60
2022/05/28 05:47:35;;;;;;;8.57;2.47;;;10.80;99.90;;;;;;5093006;28;20195;-60
2022/05/28 05:50:01;;;;;;;13.77;2.00;;;10.90;99.90;;;;;;5091898;28;20176;-59
2022/05/28 05:52:27;;;;;;;8.17;2.03;;;10.90;99.90;;;;;;5092847;28;20183;-59
2022/05/28 05:54:53;;;;;;;10.60;2.27;;;10.90;99.90;;;;;;5092717;28;20167;-59
2022/05/28 05:57:18;;;;;;;14.97;2.50;;;10.80;99.90;;;;;;5092991;28;20168;-60
2022/05/28 05:59:44;;;;;;;12.97;2.37;;;11.20;99.90;;;;;;5092691;28;20302;-59
2022/05/28 06:02:10;;;;;;;13.77;2.70;;;11.20;99.90;;;;;;5092702;28;20559;-60
2022/05/28 06:04:36;;;;;;;14.50;2.30;;;11.30;99.90;;;;;;5092364;28;20237;-59
2022/05/28 06:07:07;;;;;;;11.10;2.37;;;11.30;99.90;;;;;;5092488;28;20691;-60
2022/05/28 06:09:33;;;;;;;15.73;2.40;;;11.40;99.90;;;;;;5092959;28;20192;-60
2022/05/28 06:11:59;;;;;;;11.53;2.43;;;11.40;99.90;;;;;;5092273;28;20176;-65
2022/05/28 06:14:25;;;;;;;19.53;2.40;;;11.50;99.90;;;;;;5092341;28;20611;-65
2022/05/28 06:16:50;;;;;;;13.10;2.93;;;11.60;99.90;;;;;;5092572;28;20220;-65
2022/05/28 06:19:16;;;;;;;7.83;1.80;;;11.70;99.90;;;;;;5092545;28;20172;-66
2022/05/28 06:21:42;;;;;;;12.57;2.20;;;;;;;;;;5092515;28;20632;-63
2022/05/28 06:24:08;;;;;;;11.13;2.57;;;12.10;99.90;;;;;;5092124;28;20651;-65
2022/05/28 06:26:34;;;;;;;17.37;3.07;;;11.80;99.90;;;;;;5092018;28;20211;-65
2022/05/28 06:29:00;;;;;;;17.23;2.70;;;12.00;99.90;;;;;;5092465;28;20259;-69
2022/05/28 06:31:26;;;;;;;15.63;2.30;;;11.90;99.90;;;;;;5092208;28;20176;-66
2022/05/28 06:33:51;;;;;;;16.13;2.37;;;12.00;99.90;;;;;;5092191;28;20164;-66
2022/05/28 06:36:17;;;;;;;13.10;2.50;;;12.00;99.90;;;;;;5090138;28;20180;-66
2022/05/28 06:38:45;;;;;;;10.37;1.90;;;12.00;99.90;;;;;;5092091;28;20212;-65
2022/05/28 06:41:11;;;;;;;14.03;2.47;;;;;;;;;;5092044;28;20169;-65
2022/05/28 06:43:37;;;;;;;13.70;2.07;;;;;;;;;;5091967;28;20267;-65
2022/05/28 06:46:05;;;;;;;17.13;2.30;;;12.40;99.90;;;;;;5090565;28;20246;-66
2022/05/28 06:48:31;;;;;;;14.70;2.40;;;12.40;99.90;;;;;;5091816;28;20312;-59
2022/05/28 06:51:03;;;;;;;13.10;2.50;;;12.10;99.90;;;;;;5091743;28;20251;-63
2022/05/28 06:53:31;;;;;;;12.47;2.30;;;12.30;99.90;;;;;;5091487;28;20168;-64
2022/05/28 06:55:57;;;;;;;15.80;2.33;;;12.40;99.90;;;;;;5071454;28;20169;-63
2022/05/28 06:58:23;;;;;;;9.73;1.90;;;12.60;99.90;;;;;;5074477;28;20179;-62
2022/05/28 07:00:49;;;;;;;11.97;2.03;;;12.50;99.90;;;;;;5091459;28;20179;-61
2022/05/28 07:03:17;;;;;;;10.13;1.70;;;12.50;99.90;;;;;;5091511;28;20255;-62
2022/05/28 07:05:43;;;;;;;10.70;1.60;;;12.60;99.90;;;;;;5091604;28;20291;-61
2022/05/28 07:08:09;;;;;;;13.67;2.23;;;12.60;99.90;;;;;;5088599;28;20263;-62
2022/05/28 07:10:38;;;;;;;13.03;1.70;;;12.60;99.90;;;;;;5081873;28;20168;-61
2022/05/28 07:13:05;;;;;;;12.23;1.98;;;12.60;99.90;;;;;;5091515;28;20172;-61
2022/05/28 07:15:31;;;;;;;10.68;1.80;;;13.00;99.90;;;;;;5071531;28;20224;-61
2022/05/28 07:17:57;;;;;;;8.67;1.70;;;12.90;99.90;;;;;;5071934;28;20176;-62
2022/05/28 07:20:23;;;;;;;12.48;2.28;;;13.10;99.90;;;;;;5086309;28;20222;-62
2022/05/28 07:22:48;;;;;;;8.82;1.90;;;12.90;99.90;;;;;;5069242;28;20260;-61
2022/05/28 07:25:14;;;;;;;11.35;1.65;;;13.00;99.90;;;;;;5076658;28;20176;-61
2022/05/28 07:27:40;;;;;;;11.27;2.07;;;13.00;99.90;;;;;;5089567;28;20184;-61
2022/05/28 07:30:07;;;;;;;13.03;2.03;;;12.90;99.90;;;;;;5090422;28;20603;-61
2022/05/28 07:32:32;;;;;;;8.67;1.57;;;13.00;99.90;;;;;;5091463;28;20176;-61
2022/05/28 07:34:59;;;;;;;10.23;1.80;;;14.60;99.90;;;;;;5091195;28;20543;-61
2022/05/28 07:37:26;;;;;;;10.73;2.05;;;13.40;99.90;;;;;;5090350;28;20203;-62
2022/05/28 07:39:52;;;;;;;9.35;1.70;;;13.20;99.90;;;;;;5091179;28;20259;-62
2022/05/28 07:42:18;;;;;;;10.43;1.73;;;;;;;;;;5090662;28;20222;-64
2022/05/28 07:44:43;;;;;;;8.75;1.58;;;13.20;99.90;;;;;;5090743;28;20179;-64
2022/05/28 07:47:09;;;;;;;12.23;1.95;;;13.30;99.90;;;;;;5090791;28;20204;-64
2022/05/28 07:49:36;;;;;;;8.75;1.73;;;13.60;99.90;;;;;;5090825;28;20247;-64
2022/05/28 07:52:02;;;;;;;8.55;1.88;;;13.50;99.90;;;;;;5091238;28;20255;-63
2022/05/28 07:54:28;;;;;;;8.93;1.60;;;13.50;99.90;;;;;;5090756;28;20183;-62
2022/05/28 07:56:54;;;;;;;10.02;1.63;;;;;;;;;;5089854;28;20179;-59
2022/05/28 07:59:20;;;;;;;6.32;1.50;;;13.70;99.90;;;;;;5090836;28;20644;-59
2022/05/28 08:01:45;;;;;;;7.95;1.45;;;14.30;99.90;;;;;;5090653;28;20171;-59
2022/05/28 08:04:11;;;;;;;9.20;2.17;;;14.40;99.90;;;;;;5090830;28;20176;-59
2022/05/28 08:06:38;;;;;;;11.27;1.90;;;14.40;99.90;;;;;;5090822;28;20750;-59
2022/05/28 08:09:05;;;;;;;17.92;2.20;;;14.80;99.90;;;;;;5090212;28;20174;-58
2022/05/28 08:11:31;;;;;;;12.05;1.60;;;14.90;99.90;;;;;;5090359;28;20609;-58
2022/05/28 08:13:58;;;;;;;15.73;2.53;;;15.00;99.90;;;;;;5090421;28;20255;-59
2022/05/28 08:16:24;;;;;;;9.65;1.70;;;15.10;99.90;;;;;;5090391;28;20699;-59
2022/05/28 08:18:51;;;;;;;7.85;1.42;;;15.40;99.90;;;;;;5090263;28;20199;-58
2022/05/28 08:24:02;;;;;;;11.98;1.52;;;15.40;99.90;;;;;;5090510;28;20228;-58
2022/05/28 08:26:28;;;;;;;5.22;1.50;;;15.30;99.90;;;;;;5090443;28;20211;-58
2022/05/28 08:28:55;;;;;;;10.20;2.15;;;15.40;99.90;;;;;;5089025;28;20175;-59
2022/05/28 08:31:22;;;;;;;9.77;1.52;;;;;;;;;;5089651;28;20210;-59
2022/05/28 08:33:48;;;;;;;9.10;1.42;;;15.70;99.90;;;;;;5090462;28;20241;-59
2022/05/28 08:36:15;;;;;;;11.05;1.75;;;16.00;99.90;;;;;;5090579;28;20186;-58
2022/05/28 08:38:41;;;;;;;6.35;1.60;;;16.20;99.90;;;;;;5089612;28;20574;-59
2022/05/28 08:41:14;;;;;;;6.40;1.75;;;16.40;99.90;;;;;;5089490;28;20565;-58
2022/05/28 08:44:14;;;;;;;8.13;1.60;;;16.50;99.90;;;;;;5090183;28;20168;-59
2022/05/28 08:46:43;;;;;;;11.20;1.80;;;15.90;99.90;;;;;;5089939;28;20680;-58
2022/05/28 08:49:12;;;;;;;12.75;1.95;;;16.30;99.90;;;;;;5089926;28;20651;-58
2022/05/28 08:51:56;;;;;;;11.55;1.77;;;16.60;99.90;;;;;;5089366;28;20663;-58
2022/05/28 08:54:43;;;;;;;5.15;1.33;;;16.40;99.90;;;;;;5089562;28;20182;-59
2022/05/28 08:57:18;;;;;;;5.95;1.70;;;16.00;99.90;;;;;;5089644;28;20644;-58
2022/05/28 09:00:01;;;;;;;13.05;1.80;;;16.80;99.90;;;;;;5090228;28;20729;-59
2022/05/28 09:02:41;;;;;;;6.47;1.30;;;17.50;99.90;;;;;;5089842;28;20180;-59
2022/05/28 09:05:28;;;;;;;4.80;1.15;;;18.00;99.90;;;;;;5089362;28;20168;-59
2022/05/28 09:08:02;;;;;;;7.18;1.20;;;18.00;99.90;;;;;;5088882;28;20188;-59
2022/05/28 09:10:43;;;;;;;5.68;1.70;;;18.40;99.90;;;;;;5093203;28;20179;-57
2022/05/28 09:13:24;;;;;;;8.70;1.48;;;19.10;99.90;;;;;;5085299;28;20620;-57
2022/05/28 09:15:51;;;;;;;9.13;1.67;;;19.90;99.90;;;;;;5092478;28;20360;-57
2022/05/28 09:18:17;;;;;;;6.03;1.83;;;19.50;99.90;;;;;;5092837;28;20267;-57
2022/05/28 09:20:44;;;;;;;6.68;2.17;;;19.80;99.90;;;;;;5089324;28;20678;-57
2022/05/28 09:23:11;;;;;;;6.43;2.28;;;19.90;99.90;;;;;;5088704;28;20172;-57
2022/05/28 09:25:43;;;;;;;9.52;1.90;;;19.80;99.90;;;;;;5092926;28;20286;-57
2022/05/28 09:28:18;;;;;;;5.82;2.10;;;19.20;99.90;;;;;;5093338;28;20585;-57
2022/05/28 09:31:10;;;;;;;8.85;2.30;;;18.10;99.90;;;;;;5073024;28;20175;-58
2022/05/28 09:34:03;;;;;;;8.27;2.30;;;19.10;99.90;;;;;;5065630;28;20263;-58
2022/05/28 09:36:49;;;;;;;7.47;2.38;;;19.20;99.90;;;;;;5073313;28;20581;-58
2022/05/28 09:39:36;;;;;;;8.48;2.08;;;19.70;99.90;;;;;;5073179;28;20180;-58
2022/05/28 09:42:17;;;;;;;10.93;2.55;;;18.90;99.90;;;;;;5073039;28;20164;-58
2022/05/28 09:44:55;;;;;;;9.77;2.63;;;19.00;99.90;;;;;;5073291;28;20200;-58
2022/05/28 09:47:20;;;;;;;8.13;2.42;;;18.90;99.90;;;;;;5072913;28;20675;-58
2022/05/28 09:49:47;;;;;;;7.50;2.33;;;19.10;99.90;;;;;;5070887;28;20211;-58
2022/05/28 09:52:20;;;;;;;7.90;2.70;;;18.70;99.90;;;;;;5070824;28;20173;-58
2022/05/28 09:54:45;;;;;;;6.53;2.60;;;18.40;99.90;;;;;;5071051;28;20184;-58
2022/05/28 09:57:29;;;;;;;7.13;2.40;;;18.20;99.90;;;;;;5071675;28;20169;-58
2022/05/28 09:59:59;;;;;;;7.00;1.90;;;18.60;99.90;;;;;;5071217;28;20168;-58
2022/05/28 10:04:28;;;;;;;8.45;1.92;;;18.90;99.90;;;;;;5070963;28;20617;-58
2022/05/28 10:05:44;;;;;;;5.10;1.98;;;18.90;99.90;;;;;;5072579;28;20239;-58
2022/05/28 10:08:12;;;;;;;8.05;2.17;;;19.50;99.90;;;;;;5072719;28;20179;-58
2022/05/28 10:10:40;;;;;;;5.30;2.00;;;19.70;99.90;;;;;;5072496;28;20172;-58
2022/05/28 10:13:15;;;;;;;7.47;2.10;;;19.60;99.90;;;;;;5072465;28;20210;-58
2022/05/28 10:15:46;;;;;;;4.28;1.98;;;20.70;99.90;;;;;;5072223;28;20224;-58
2022/05/28 10:18:18;;;;;;;5.80;1.70;;;21.50;99.90;;;;;;5072399;28;20180;-58
2022/05/28 10:20:44;;;;;;;7.35;1.90;;;21.50;99.90;;;;;;5070798;28;20271;-59
2022/05/28 10:23:15;;;;;;;7.82;1.95;;;21.30;99.90;;;;;;5071028;28;20260;-58
2022/05/28 10:25:48;;;;;;;8.27;1.80;;;21.60;99.90;;;;;;5072169;28;20640;-59
2022/05/28 10:28:35;;;;;;;5.88;2.20;;;21.40;99.90;;;;;;5072435;28;20184;-58
2022/05/28 10:31:01;;;;;;;5.97;1.90;;;20.90;99.90;;;;;;5064658;28;20640;-58
2022/05/28 10:33:30;;;;;;;6.72;1.77;;;20.50;99.90;;;;;;5072086;28;20205;-58
2022/05/28 10:36:13;;;;;;;5.05;1.80;;;21.50;99.90;;;;;;5075489;28;20176;-59
2022/05/28 10:38:38;;;;;;;4.22;1.80;;;21.20;99.90;;;;;;5081935;28;20540;-58
2022/05/28 10:41:26;;;;;;;10.55;2.28;;;21.10;99.90;;;;;;5091502;28;20179;-58
2022/05/28 10:43:52;;;;;;;7.65;2.25;;;20.80;99.90;;;;;;5091699;28;20279;-58
2022/05/28 10:46:27;;;;;;;5.72;1.90;;;21.50;99.90;;;;;;5091870;28;20207;-58
2022/05/28 10:49:17;;;;;;;9.13;2.13;;;22.00;99.90;;;;;;5088602;28;20198;-59
2022/05/28 10:51:56;;;;;;;8.85;2.28;;;22.80;99.90;;;;;;5071710;28;20700;-59
2022/05/28 10:54:30;;;;;;;7.35;1.90;;;22.70;99.90;;;;;;5084224;28;20198;-58
2022/05/28 10:57:28;;;;;;;5.20;1.85;;;21.60;99.90;;;;;;5089015;28;20671;-59
2022/05/28 10:59:59;;;;;;;6.22;2.17;;;21.50;99.90;;;;;;5074199;28;20215;-58
2022/05/28 11:03:04;;;;;;;12.10;2.13;;;22.00;99.90;;;;;;5076911;28;20176;-58
2022/05/28 11:05:44;;;;;;;6.70;2.10;;;21.90;99.90;;;;;;5071665;28;20172;-58
2022/05/28 11:08:28;;;;;;;8.60;2.13;;;21.30;99.90;;;;;;5071541;28;20187;-58
2022/05/28 11:11:23;;;;;;;7.45;2.38;;;20.90;99.90;;;;;;5071419;28;20167;-58
2022/05/28 11:14:11;;;;;;;8.07;2.45;;;21.70;99.90;;;;;;5055279;28;20176;-59
2022/05/28 11:16:53;;;;;;;5.95;1.98;;;21.80;99.90;;;;;;5071081;28;20224;-59
2022/05/28 11:19:40;;;;;;;7.60;2.05;;;22.50;99.90;;;;;;5071065;28;20179;-59
2022/05/28 11:22:11;;;;;;;4.45;1.67;;;23.00;99.90;;;;;;5071167;28;20165;-59
2022/05/28 11:25:04;;;;;;;4.55;1.67;;;23.80;99.90;;;;;;5071022;28;20184;-59
2022/05/28 11:27:48;;;;;;;4.85;1.98;;;22.50;99.90;;;;;;5088582;28;20723;-59
2022/05/28 11:30:24;;;;;;;5.50;1.77;;;22.10;99.90;;;;;;5090813;28;20213;-59
2022/05/28 11:33:00;;;;;;;6.03;1.75;;;23.20;99.90;;;;;;5090667;28;20254;-59
2022/05/28 11:35:34;;;;;;;5.63;1.90;;;23.70;99.90;;;;;;5090684;28;20232;-59
2022/05/28 11:38:46;;;;;;;5.18;1.60;;;23.80;99.90;;;;;;5090635;28;20171;-59
2022/05/28 11:41:12;;;;;;;5.65;1.90;;;;;;;;;;5087953;28;20180;-59
2022/05/28 11:43:50;;;;;;;4.20;1.65;;;25.00;99.90;;;;;;5088251;28;20763;-59
2022/05/28 11:46:25;;;;;;;8.25;1.83;;;25.60;99.90;;;;;;5090432;28;20211;-59
2022/05/28 11:51:59;;;;;;;4.68;1.63;;;24.50;99.90;;;;;;5078435;28;20241;-59
2022/05/28 11:54:34;;;;;;;7.10;1.70;;;23.20;99.90;;;;;;5090757;28;20164;-59
2022/05/28 11:57:04;;;;;;;4.25;1.65;;;23.50;99.90;;;;;;5090546;28;20171;-59
2022/05/28 11:59:31;;;;;;;7.28;1.90;;;24.50;99.90;;;;;;5090059;28;20695;-59
2022/05/28 12:02:08;;;;;;;5.97;1.60;;;23.60;99.90;;;;;;5090602;28;20176;-59
2022/05/28 12:04:42;;;;;;;8.70;2.22;;;23.50;99.90;;;;;;5090599;28;20186;-59
2022/05/28 12:07:28;;;;;;;6.82;1.67;;;23.90;99.90;;;;;;5090382;28;20284;-59
2022/05/28 12:09:55;;;;;;;13.63;1.70;;;23.80;99.90;;;;;;5090078;28;20198;-59
2022/05/28 12:12:23;;;;;;;5.70;1.63;;;23.20;99.90;;;;;;5089818;28;20175;-59
2022/05/28 12:15:16;;;;;;;3.88;1.40;;;22.70;99.90;;;;;;5089875;28;20167;-59
2022/05/28 12:17:55;;;;;;;7.28;2.05;;;22.50;99.90;;;;;;5090097;28;20660;-58
2022/05/28 12:20:32;;;;;;;7.30;2.10;;;23.60;99.90;;;;;;5090103;28;20216;-59
2022/05/28 12:23:01;;;;;;;6.10;1.75;;;25.10;99.90;;;;;;5087971;28;20281;-60
2022/05/28 12:25:29;;;;;;;3.38;1.75;;;25.10;99.90;;;;;;5089734;28;20176;-59
2022/05/28 12:27:55;;;;;;;4.93;1.60;;;23.80;99.90;;;;;;5090444;28;20171;-59
2022/05/28 12:30:29;;;;;;;4.72;1.60;;;23.90;99.90;;;;;;5090471;28;20179;-59
2022/05/28 12:32:57;;;;;;;10.07;1.88;;;25.00;99.90;;;;;;5090836;28;20179;-59
2022/05/28 12:35:49;;;;;;;5.72;1.60;;;25.20;99.90;;;;;;5090035;28;20172;-60
2022/05/28 12:38:37;;;;;;;3.22;1.33;;;25.40;99.90;;;;;;5089968;28;20180;-59
2022/05/28 12:41:04;;;;;;;6.10;1.90;;;23.80;99.90;;;;;;5089816;28;20216;-60
2022/05/28 12:43:38;;;;;;;6.50;1.42;;;24.80;99.90;;;;;;5092116;28;20243;-60
2022/05/28 12:46:20;;;;;;;4.95;1.85;;;24.80;99.90;;;;;;5084540;28;20218;-59
2022/05/28 12:48:50;;;;;;;4.65;1.92;;;25.80;99.90;;;;;;5093357;28;20191;-59
2022/05/28 12:51:35;;;;;;;4.05;1.60;;;25.70;99.90;;;;;;5093585;28;20175;-59
2022/05/28 12:54:04;;;;;;;4.25;1.50;;;24.60;99.90;;;;;;5087126;28;20202;-59
2022/05/28 12:56:32;;;;;;;5.65;1.75;;;24.80;99.90;;;;;;5083159;28;20711;-60
2022/05/28 12:59:21;;;;;;;4.22;1.77;;;25.40;99.90;;;;;;5086999;28;20168;-60
2022/05/28 13:01:58;;;;;;;6.55;1.52;;;25.50;99.90;;;;;;5094277;28;20247;-60
2022/05/28 13:04:28;;;;;;;8.05;1.70;;;26.80;99.90;;;;;;5093665;28;20163;-60
2022/05/28 13:06:58;;;;;;;5.45;1.80;;;26.10;99.90;;;;;;5093590;28;20203;-60
2022/05/28 13:09:27;;;;;;;3.78;1.63;;;26.40;99.90;;;;;;5083086;28;20164;-60
2022/05/28 13:12:11;;;;;;;5.90;1.63;;;26.50;99.90;;;;;;5093617;28;20578;-60
2022/05/28 13:15:04;;;;;;;7.78;2.00;;;25.60;99.90;;;;;;5093726;28;20262;-57
2022/05/28 13:17:35;;;;;;;6.18;1.50;;;25.90;99.90;;;;;;5093734;28;20214;-58